Flight Track Log - Related Links

Times and Time Zones

All times are in EDT time to prevent confusion due to time zone crossing. See the N357BE flight status page for this flight to view local times or setup timezone preferences in your user account.

Time Position Orientation Groundspeed Altitude Reporting Facility
EDT Latitude Longitude Course Direction KTS MPH feet Rate Location/Type
Thu 03:05:00 PM 44.9631 -93.0717 36° Northeast 194 223 2,200  Level Minneapolis Center
Thu 03:06:14 PM 45.0100 -93.0233 36° Northeast 204 235 5,200 1,676 Climbing Minneapolis Center
Thu 03:07:16 PM 45.0742 -93.0350 353° North 228 262 6,000 581 Climbing Minneapolis Center
Thu 03:08:18 PM 45.1014 -93.1275 293° West 256 295 6,400 484 Climbing Minneapolis Center
Thu 03:09:20 PM 45.1144 -93.2442 279° West 253 291 7,000 290 Climbing Minneapolis Center
Thu 03:10:22 PM 45.1261 -93.3469 279° West 265 305 7,000 1,016 Level Minneapolis Center
Thu 03:11:24 PM 45.1264 -93.4475 270° West 272 313 9,100 3,268 Climbing Minneapolis Center
Thu 03:12:25 PM 45.1019 -93.5561 252° West 292 336 13,700 3,778 Climbing Minneapolis Center
Thu 03:13:39 PM 45.1261 -93.6647 288° West 295 339 17,600 3,441 Climbing Minneapolis Center
Thu 03:14:41 PM 45.1678 -93.8156 291° West 297 342 21,500 3,048 Climbing Minneapolis Center
Thu 03:15:43 PM 45.1975 -93.9267 291° West 301 346 23,900 2,029 Climbing Minneapolis Center
Thu 03:16:57 PM 45.2236 -94.0447 287° West 314 361 26,100 2,206 Climbing Minneapolis Center
Thu 03:17:59 PM 45.2386 -94.1942 278° West 319 367 28,900 2,371 Climbing Minneapolis Center
Thu 03:19:01 PM 45.2731 -94.3186 292° West 338 389 31,000 1,935 Climbing Minneapolis Center
Thu 03:20:03 PM 45.3064 -94.4464 290° West 345 397 32,900 1,887 Climbing Minneapolis Center
Thu 03:21:05 PM 45.3469 -94.5986 291° West 346 398 34,900 1,839 Climbing Minneapolis Center
Thu 03:22:07 PM 45.3789 -94.7197 291° West 344 396 36,700 1,610 Climbing Minneapolis Center
Thu 03:23:08 PM 45.4147 -94.8508 291° West 346 398 38,200 1,171 Climbing Minneapolis Center
Thu 03:24:10 PM 45.4400 -94.9508 290° West 341 392 39,100 871 Climbing Minneapolis Center
Thu 03:25:12 PM 45.4842 -95.1236 290° West 343 395 40,000 397 Climbing Minneapolis Center
Thu 03:26:26 PM 45.5192 -95.2581 290° West 359 413 40,000  Level Minneapolis Center
Thu 03:27:28 PM 45.5642 -95.4319 290° West 386 444 40,000  Level Minneapolis Center
Thu 03:28:30 PM 45.6017 -95.5808 290° West 399 459 40,000  Level Minneapolis Center
Thu 03:29:43 PM 45.6400 -95.7336 290° West 408 470 40,000  Level Minneapolis Center
Thu 03:30:45 PM 45.6875 -95.9156 291° West 410 472 40,000  Level Minneapolis Center
Thu 03:31:47 PM 45.7328 -96.0983 290° West 410 472 40,000  Level Minneapolis Center
Thu 03:32:49 PM 45.7714 -96.2539 290° West 414 476 40,000  Level Minneapolis Center
Thu 03:33:50 PM 45.8089 -96.4094 289° West 415 478 40,000  Level Minneapolis Center
Thu 03:34:52 PM 45.8467 -96.5608 290° West 410 472 40,000  Level Minneapolis Center
Thu 03:35:54 PM 45.8839 -96.7167 289° West 413 475 40,000  Level Minneapolis Center
Thu 03:36:55 PM 45.9211 -96.8728 289° West 414 476 40,000  Level Minneapolis Center
Thu 03:37:57 PM 45.9617 -97.0300 290° West 417 480 40,000  Level Minneapolis Center
Thu 03:38:59 PM 45.9969 -97.1867 288° West 416 479 40,000  Level Minneapolis Center
Thu 03:40:00 PM 46.0344 -97.3408 289° West 409 471 40,000  Level Minneapolis Center
Thu 03:41:02 PM 46.0781 -97.5267 289° West 409 471 40,000  Level Minneapolis Center
Thu 03:42:04 PM 46.1133 -97.6828 288° West 409 471 40,000  Level Minneapolis Center
Thu 03:43:06 PM 46.1497 -97.8367 289° West 408 470 40,000  Level Minneapolis Center
Thu 03:44:07 PM 46.1844 -97.9925 288° West 408 470 40,000  Level Minneapolis Center
Thu 03:45:09 PM 46.2211 -98.1472 289° West 407 468 40,000  Level Minneapolis Center
Thu 03:46:11 PM 46.2561 -98.3047 288° West 412 474 40,000 -132 Level Minneapolis Center
Thu 03:47:25 PM 46.2917 -98.4617 288° West 410 472 39,700 -750 Descending Minneapolis Center
Thu 03:48:27 PM 46.3303 -98.6847 284° West 407 468 38,300 -1,561 Descending Minneapolis Center
Thu 03:49:28 PM 46.3456 -98.8469 278° West 406 467 36,500 -2,000 Descending Minneapolis Center
Thu 03:50:30 PM 46.3608 -98.9731 280° West 403 464 34,200 -2,855 Descending Minneapolis Center
Thu 03:51:32 PM 46.3792 -99.1644 278° West 401 461 30,600 -3,290 Descending Minneapolis Center
Thu 03:52:34 PM 46.3956 -99.3403 278° West 401 461 27,400 -2,735 Descending Minneapolis Center
Thu 03:53:48 PM 46.3992 -99.5025 272° West 403 464 24,400 -2,912 Descending Minneapolis Center
Thu 03:54:50 PM 46.4444 -99.6661 292° West 371 427 20,800 -2,952 Descending Minneapolis Center
Thu 03:55:52 PM 46.4844 -99.7933 295° West 355 409 18,300 -2,000 Descending Minneapolis Center
Thu 03:56:53 PM 46.5228 -99.9167 294° West 345 397 16,700 -2,049 Descending Minneapolis Center
Thu 03:57:55 PM 46.5628 -100.0489 294° West 330 380 14,100 -2,516 Descending Minneapolis Center
Thu 03:58:57 PM 46.6000 -100.1722 294° West 316 364 11,500 -2,419 Descending Minneapolis Center
Thu 03:59:59 PM 46.6197 -100.2828 285° West 312 359 9,100 -2,173 Descending Minneapolis Center
Thu 04:01:04 PM 46.6553 -100.3861 297° West 273 314 6,900 -1,843 Descending Minneapolis Center
Thu 04:02:06 PM 46.6797 -100.4764 292° West 240 276 5,200 -1,500 Descending Minneapolis Center
Thu 04:03:08 PM 46.6972 -100.5664 286° West 229 264 3,800 -871 Descending Minneapolis Center
Thu 04:04:10 PM 46.7133 -100.6414 287° West 199 229 3,400 -581 Descending Minneapolis Center
Thu 04:05:12 PM 46.7319 -100.6961 296° West 142 163 2,600 -677 Descending Minneapolis Center
Thu 04:06:14 PM 46.7558 -100.7253 320° Northwest 113 130 2,000 -484 Descending Minneapolis Center
Thu 04:07:16 PM 46.7778 -100.7517 321° Northwest 113 130 1,600 -387 Descending Minneapolis Center
Thu 04:09:00 PM 46.7727 -100.7458 90° East  Level Estimated

Login

Don't have an account? Register now (free) for customized features, flight alerts, and more!